sensor_id;sensor_type;location;lat;lon;timestamp;P1;durP1;ratioP1;P2;durP2;ratioP2
9809;SDS011;4944;52.514;13.192;2023-02-13T00:01:57;13.07;;;8.57;;
9809;SDS011;4944;52.514;13.192;2023-02-13T00:04:24;12.27;;;8.47;;
9809;SDS011;4944;52.514;13.192;2023-02-13T00:06:51;16.27;;;8.33;;
9809;SDS011;4944;52.514;13.192;2023-02-13T00:09:18;15.93;;;8.47;;
9809;SDS011;4944;52.514;13.192;2023-02-13T00:11:46;14.17;;;8.23;;
9809;SDS011;4944;52.514;13.192;2023-02-13T00:14:13;11.30;;;7.40;;
9809;SDS011;4944;52.514;13.192;2023-02-13T00:16:40;10.27;;;7.27;;
9809;SDS011;4944;52.514;13.192;2023-02-13T00:19:07;15.67;;;7.80;;
9809;SDS011;4944;52.514;13.192;2023-02-13T00:21:33;10.53;;;7.33;;
9809;SDS011;4944;52.514;13.192;2023-02-13T00:24:00;8.70;;;6.17;;
9809;SDS011;4944;52.514;13.192;2023-02-13T00:26:27;7.57;;;5.73;;
9809;SDS011;4944;52.514;13.192;2023-02-13T00:28:56;9.03;;;5.80;;
9809;SDS011;4944;52.514;13.192;2023-02-13T00:31:26;8.27;;;6.00;;
9809;SDS011;4944;52.514;13.192;2023-02-13T00:33:52;5.63;;;4.20;;
9809;SDS011;4944;52.514;13.192;2023-02-13T00:36:20;4.40;;;3.57;;
9809;SDS011;4944;52.514;13.192;2023-02-13T00:38:48;6.00;;;3.90;;
9809;SDS011;4944;52.514;13.192;2023-02-13T00:41:15;5.07;;;3.30;;
9809;SDS011;4944;52.514;13.192;2023-02-13T00:43:42;3.87;;;3.47;;
9809;SDS011;4944;52.514;13.192;2023-02-13T00:46:11;4.63;;;2.77;;
9809;SDS011;4944;52.514;13.192;2023-02-13T00:48:38;2.93;;;2.40;;
9809;SDS011;4944;52.514;13.192;2023-02-13T00:51:06;2.70;;;2.20;;
9809;SDS011;4944;52.514;13.192;2023-02-13T00:53:34;2.50;;;2.30;;
9809;SDS011;4944;52.514;13.192;2023-02-13T00:56:01;2.10;;;1.90;;
9809;SDS011;4944;52.514;13.192;2023-02-13T00:58:29;2.57;;;2.07;;
9809;SDS011;4944;52.514;13.192;2023-02-13T01:00:56;2.53;;;2.20;;
9809;SDS011;4944;52.514;13.192;2023-02-13T01:03:24;4.03;;;2.20;;
9809;SDS011;4944;52.514;13.192;2023-02-13T01:05:51;2.73;;;2.30;;
9809;SDS011;4944;52.514;13.192;2023-02-13T01:08:19;2.60;;;2.40;;
9809;SDS011;4944;52.514;13.192;2023-02-13T01:10:46;2.80;;;2.57;;
9809;SDS011;4944;52.514;13.192;2023-02-13T01:13:14;5.07;;;2.30;;
9809;SDS011;4944;52.514;13.192;2023-02-13T01:15:43;3.77;;;2.50;;
9809;SDS011;4944;52.514;13.192;2023-02-13T01:18:12;6.83;;;2.83;;
9809;SDS011;4944;52.514;13.192;2023-02-13T01:20:40;2.47;;;2.27;;
9809;SDS011;4944;52.514;13.192;2023-02-13T01:23:09;3.00;;;2.40;;
9809;SDS011;4944;52.514;13.192;2023-02-13T01:25:38;2.67;;;2.27;;
9809;SDS011;4944;52.514;13.192;2023-02-13T01:28:05;2.43;;;2.10;;
9809;SDS011;4944;52.514;13.192;2023-02-13T01:30:32;3.57;;;2.17;;
9809;SDS011;4944;52.514;13.192;2023-02-13T01:32:59;2.03;;;1.77;;
9809;SDS011;4944;52.514;13.192;2023-02-13T01:35:26;3.13;;;2.20;;
9809;SDS011;4944;52.514;13.192;2023-02-13T01:37:54;2.30;;;2.10;;
9809;SDS011;4944;52.514;13.192;2023-02-13T01:40:21;2.23;;;2.13;;
9809;SDS011;4944;52.514;13.192;2023-02-13T01:42:48;2.63;;;2.20;;
9809;SDS011;4944;52.514;13.192;2023-02-13T01:45:20;2.00;;;1.83;;
9809;SDS011;4944;52.514;13.192;2023-02-13T01:47:50;2.23;;;2.03;;
9809;SDS011;4944;52.514;13.192;2023-02-13T01:50:20;3.70;;;2.00;;
9809;SDS011;4944;52.514;13.192;2023-02-13T01:52:50;3.43;;;1.87;;
9809;SDS011;4944;52.514;13.192;2023-02-13T01:55:21;4.20;;;2.10;;
9809;SDS011;4944;52.514;13.192;2023-02-13T01:57:49;5.47;;;2.03;;
9809;SDS011;4944;52.514;13.192;2023-02-13T02:00:19;1.97;;;1.87;;
9809;SDS011;4944;52.514;13.192;2023-02-13T02:02:48;2.30;;;2.00;;
9809;SDS011;4944;52.514;13.192;2023-02-13T02:05:21;2.00;;;1.77;;
9809;SDS011;4944;52.514;13.192;2023-02-13T02:07:52;2.43;;;2.00;;
9809;SDS011;4944;52.514;13.192;2023-02-13T02:10:22;2.00;;;1.80;;
9809;SDS011;4944;52.514;13.192;2023-02-13T02:12:50;2.40;;;2.00;;
9809;SDS011;4944;52.514;13.192;2023-02-13T02:15:21;2.27;;;1.77;;
9809;SDS011;4944;52.514;13.192;2023-02-13T02:17:48;2.07;;;1.70;;
9809;SDS011;4944;52.514;13.192;2023-02-13T02:20:19;2.00;;;1.80;;
9809;SDS011;4944;52.514;13.192;2023-02-13T02:23:00;2.47;;;1.90;;
9809;SDS011;4944;52.514;13.192;2023-02-13T02:29:02;2.20;;;1.90;;
9809;SDS011;4944;52.514;13.192;2023-02-13T02:31:58;2.93;;;2.10;;
9809;SDS011;4944;52.514;13.192;2023-02-13T02:34:36;2.27;;;2.10;;
9809;SDS011;4944;52.514;13.192;2023-02-13T02:37:15;3.93;;;2.80;;
9809;SDS011;4944;52.514;13.192;2023-02-13T02:39:55;4.60;;;2.40;;
9809;SDS011;4944;52.514;13.192;2023-02-13T02:42:33;3.47;;;2.80;;
9809;SDS011;4944;52.514;13.192;2023-02-13T02:45:09;3.17;;;2.73;;
9809;SDS011;4944;52.514;13.192;2023-02-13T02:47:47;3.13;;;2.70;;
9809;SDS011;4944;52.514;13.192;2023-02-13T02:50:36;2.80;;;2.60;;
9809;SDS011;4944;52.514;13.192;2023-02-13T02:53:12;3.23;;;2.93;;
9809;SDS011;4944;52.514;13.192;2023-02-13T02:55:49;5.53;;;3.20;;
9809;SDS011;4944;52.514;13.192;2023-02-13T02:58:21;5.10;;;2.90;;
9809;SDS011;4944;52.514;13.192;2023-02-13T03:01:10;3.80;;;3.30;;
9809;SDS011;4944;52.514;13.192;2023-02-13T03:03:58;3.40;;;3.10;;
9809;SDS011;4944;52.514;13.192;2023-02-13T03:06:45;4.30;;;3.47;;
9809;SDS011;4944;52.514;13.192;2023-02-13T03:09:15;3.53;;;3.23;;
9809;SDS011;4944;52.514;13.192;2023-02-13T03:12:02;3.53;;;3.13;;
9809;SDS011;4944;52.514;13.192;2023-02-13T03:14:47;4.53;;;4.13;;
9809;SDS011;4944;52.514;13.192;2023-02-13T03:17:15;6.10;;;4.30;;
9809;SDS011;4944;52.514;13.192;2023-02-13T03:20:09;4.53;;;4.07;;
9809;SDS011;4944;52.514;13.192;2023-02-13T03:23:03;4.30;;;3.90;;
9809;SDS011;4944;52.514;13.192;2023-02-13T03:25:42;5.57;;;4.43;;
9809;SDS011;4944;52.514;13.192;2023-02-13T03:28:24;4.60;;;3.93;;
9809;SDS011;4944;52.514;13.192;2023-02-13T03:31:14;4.33;;;3.93;;
9809;SDS011;4944;52.514;13.192;2023-02-13T03:33:52;5.33;;;4.10;;
9809;SDS011;4944;52.514;13.192;2023-02-13T03:36:27;4.43;;;4.03;;
9809;SDS011;4944;52.514;13.192;2023-02-13T03:39:17;5.57;;;4.87;;
9809;SDS011;4944;52.514;13.192;2023-02-13T03:41:48;7.03;;;5.73;;
9809;SDS011;4944;52.514;13.192;2023-02-13T03:44:19;6.70;;;4.87;;
9809;SDS011;4944;52.514;13.192;2023-02-13T03:46:52;7.73;;;4.83;;
9809;SDS011;4944;52.514;13.192;2023-02-13T03:49:23;5.77;;;4.83;;
9809;SDS011;4944;52.514;13.192;2023-02-13T03:52:14;8.03;;;6.43;;
9809;SDS011;4944;52.514;13.192;2023-02-13T03:54:45;9.03;;;7.50;;
9809;SDS011;4944;52.514;13.192;2023-02-13T03:57:33;8.60;;;6.67;;
9809;SDS011;4944;52.514;13.192;2023-02-13T04:00:20;8.30;;;6.83;;
9809;SDS011;4944;52.514;13.192;2023-02-13T04:02:49;9.63;;;6.97;;
9809;SDS011;4944;52.514;13.192;2023-02-13T04:05:23;8.87;;;6.93;;
9809;SDS011;4944;52.514;13.192;2023-02-13T04:07:55;7.10;;;6.40;;
9809;SDS011;4944;52.514;13.192;2023-02-13T04:10:22;7.90;;;7.10;;
9809;SDS011;4944;52.514;13.192;2023-02-13T04:12:55;8.93;;;6.97;;
9809;SDS011;4944;52.514;13.192;2023-02-13T04:15:27;6.70;;;5.87;;
9809;SDS011;4944;52.514;13.192;2023-02-13T04:17:58;10.70;;;7.40;;
9809;SDS011;4944;52.514;13.192;2023-02-13T04:20:31;7.53;;;6.30;;
9809;SDS011;4944;52.514;13.192;2023-02-13T04:23:04;7.97;;;6.30;;
9809;SDS011;4944;52.514;13.192;2023-02-13T04:25:33;9.67;;;6.93;;
9809;SDS011;4944;52.514;13.192;2023-02-13T04:28:01;10.53;;;6.83;;
9809;SDS011;4944;52.514;13.192;2023-02-13T04:30:28;10.40;;;7.53;;
9809;SDS011;4944;52.514;13.192;2023-02-13T04:32:55;11.33;;;7.90;;
9809;SDS011;4944;52.514;13.192;2023-02-13T04:35:22;8.60;;;7.60;;
9809;SDS011;4944;52.514;13.192;2023-02-13T04:37:48;8.93;;;7.23;;
9809;SDS011;4944;52.514;13.192;2023-02-13T04:40:17;7.70;;;6.73;;
9809;SDS011;4944;52.514;13.192;2023-02-13T04:42:45;7.93;;;6.63;;
9809;SDS011;4944;52.514;13.192;2023-02-13T04:45:13;9.97;;;6.27;;
9809;SDS011;4944;52.514;13.192;2023-02-13T04:47:40;7.27;;;6.47;;
9809;SDS011;4944;52.514;13.192;2023-02-13T04:50:07;7.27;;;6.53;;
9809;SDS011;4944;52.514;13.192;2023-02-13T04:52:35;8.40;;;6.83;;
9809;SDS011;4944;52.514;13.192;2023-02-13T04:55:01;6.93;;;6.27;;
9809;SDS011;4944;52.514;13.192;2023-02-13T04:57:30;6.93;;;5.93;;
9809;SDS011;4944;52.514;13.192;2023-02-13T04:59:57;7.03;;;6.20;;
9809;SDS011;4944;52.514;13.192;2023-02-13T05:02:23;6.20;;;5.60;;
9809;SDS011;4944;52.514;13.192;2023-02-13T05:04:50;6.90;;;6.17;;
9809;SDS011;4944;52.514;13.192;2023-02-13T05:07:17;6.90;;;6.20;;
9809;SDS011;4944;52.514;13.192;2023-02-13T05:09:44;6.83;;;5.93;;
9809;SDS011;4944;52.514;13.192;2023-02-13T05:12:11;8.30;;;5.80;;
9809;SDS011;4944;52.514;13.192;2023-02-13T05:14:39;6.93;;;6.23;;
9809;SDS011;4944;52.514;13.192;2023-02-13T05:17:06;6.60;;;5.90;;
9809;SDS011;4944;52.514;13.192;2023-02-13T05:19:33;5.97;;;5.37;;
9809;SDS011;4944;52.514;13.192;2023-02-13T05:22:00;6.60;;;5.90;;
9809;SDS011;4944;52.514;13.192;2023-02-13T05:24:44;6.10;;;5.33;;
9809;SDS011;4944;52.514;13.192;2023-02-13T05:27:11;7.03;;;5.87;;
9809;SDS011;4944;52.514;13.192;2023-02-13T05:29:39;6.30;;;5.70;;
9809;SDS011;4944;52.514;13.192;2023-02-13T05:32:06;7.57;;;5.60;;
9809;SDS011;4944;52.514;13.192;2023-02-13T05:34:33;6.00;;;5.40;;
9809;SDS011;4944;52.514;13.192;2023-02-13T05:37:00;7.03;;;5.40;;
9809;SDS011;4944;52.514;13.192;2023-02-13T05:39:27;8.00;;;5.57;;
9809;SDS011;4944;52.514;13.192;2023-02-13T05:41:54;5.57;;;5.00;;
9809;SDS011;4944;52.514;13.192;2023-02-13T05:44:21;5.67;;;4.70;;
9809;SDS011;4944;52.514;13.192;2023-02-13T05:46:49;5.63;;;5.03;;
9809;SDS011;4944;52.514;13.192;2023-02-13T05:49:17;5.37;;;4.87;;
9809;SDS011;4944;52.514;13.192;2023-02-13T05:51:44;6.30;;;5.37;;
9809;SDS011;4944;52.514;13.192;2023-02-13T05:54:11;5.10;;;4.60;;
9809;SDS011;4944;52.514;13.192;2023-02-13T05:56:38;5.37;;;4.87;;
9809;SDS011;4944;52.514;13.192;2023-02-13T05:59:05;5.70;;;4.93;;
9809;SDS011;4944;52.514;13.192;2023-02-13T06:01:32;7.33;;;5.07;;
9809;SDS011;4944;52.514;13.192;2023-02-13T06:04:00;5.17;;;4.67;;
9809;SDS011;4944;52.514;13.192;2023-02-13T06:06:27;6.27;;;5.03;;
9809;SDS011;4944;52.514;13.192;2023-02-13T06:08:54;5.30;;;4.80;;
9809;SDS011;4944;52.514;13.192;2023-02-13T06:11:20;5.50;;;4.90;;
9809;SDS011;4944;52.514;13.192;2023-02-13T06:13:47;5.77;;;4.77;;
9809;SDS011;4944;52.514;13.192;2023-02-13T06:16:14;5.57;;;5.07;;
9809;SDS011;4944;52.514;13.192;2023-02-13T06:18:41;5.13;;;4.70;;
9809;SDS011;4944;52.514;13.192;2023-02-13T06:21:09;5.43;;;5.00;;
9809;SDS011;4944;52.514;13.192;2023-02-13T06:23:36;5.80;;;4.70;;
9809;SDS011;4944;52.514;13.192;2023-02-13T06:26:03;5.77;;;5.17;;
9809;SDS011;4944;52.514;13.192;2023-02-13T06:28:31;5.73;;;5.27;;
9809;SDS011;4944;52.514;13.192;2023-02-13T06:30:59;5.73;;;4.90;;
9809;SDS011;4944;52.514;13.192;2023-02-13T06:33:26;5.70;;;4.93;;
9809;SDS011;4944;52.514;13.192;2023-02-13T06:35:53;5.03;;;4.57;;
9809;SDS011;4944;52.514;13.192;2023-02-13T06:38:21;5.30;;;4.80;;
9809;SDS011;4944;52.514;13.192;2023-02-13T06:40:48;5.90;;;5.40;;
9809;SDS011;4944;52.514;13.192;2023-02-13T06:43:15;6.10;;;5.10;;
9809;SDS011;4944;52.514;13.192;2023-02-13T06:45:43;5.30;;;4.80;;
9809;SDS011;4944;52.514;13.192;2023-02-13T06:48:11;5.23;;;4.83;;
9809;SDS011;4944;52.514;13.192;2023-02-13T06:50:39;7.90;;;5.40;;
9809;SDS011;4944;52.514;13.192;2023-02-13T06:53:05;5.60;;;5.10;;
9809;SDS011;4944;52.514;13.192;2023-02-13T06:55:34;6.33;;;5.73;;
9809;SDS011;4944;52.514;13.192;2023-02-13T06:58:03;6.40;;;5.47;;
9809;SDS011;4944;52.514;13.192;2023-02-13T07:00:30;6.43;;;5.60;;
9809;SDS011;4944;52.514;13.192;2023-02-13T07:03:00;6.30;;;5.70;;
9809;SDS011;4944;52.514;13.192;2023-02-13T07:05:27;5.90;;;5.30;;
9809;SDS011;4944;52.514;13.192;2023-02-13T07:07:54;6.37;;;5.77;;
9809;SDS011;4944;52.514;13.192;2023-02-13T07:10:21;6.03;;;5.53;;
9809;SDS011;4944;52.514;13.192;2023-02-13T07:12:49;7.67;;;6.13;;
9809;SDS011;4944;52.514;13.192;2023-02-13T07:15:16;7.47;;;6.77;;
9809;SDS011;4944;52.514;13.192;2023-02-13T07:17:43;6.50;;;5.90;;
9809;SDS011;4944;52.514;13.192;2023-02-13T07:20:10;8.00;;;6.90;;
9809;SDS011;4944;52.514;13.192;2023-02-13T07:22:37;9.23;;;6.60;;
9809;SDS011;4944;52.514;13.192;2023-02-13T07:25:05;8.10;;;7.10;;
9809;SDS011;4944;52.514;13.192;2023-02-13T07:27:32;11.47;;;7.00;;
9809;SDS011;4944;52.514;13.192;2023-02-13T07:30:00;7.30;;;6.60;;
9809;SDS011;4944;52.514;13.192;2023-02-13T07:32:27;8.00;;;7.13;;
9809;SDS011;4944;52.514;13.192;2023-02-13T07:34:54;9.33;;;8.43;;
9809;SDS011;4944;52.514;13.192;2023-02-13T07:37:21;7.37;;;6.67;;
9809;SDS011;4944;52.514;13.192;2023-02-13T07:39:48;7.07;;;6.30;;
9809;SDS011;4944;52.514;13.192;2023-02-13T07:42:15;7.63;;;5.67;;
9809;SDS011;4944;52.514;13.192;2023-02-13T07:44:42;6.70;;;5.67;;
9809;SDS011;4944;52.514;13.192;2023-02-13T07:47:10;6.90;;;6.07;;
9809;SDS011;4944;52.514;13.192;2023-02-13T07:49:37;6.40;;;5.80;;
9809;SDS011;4944;52.514;13.192;2023-02-13T07:52:04;7.20;;;6.50;;
9809;SDS011;4944;52.514;13.192;2023-02-13T07:54:31;6.70;;;6.10;;
9809;SDS011;4944;52.514;13.192;2023-02-13T07:56:58;7.27;;;5.90;;
9809;SDS011;4944;52.514;13.192;2023-02-13T07:59:25;6.40;;;5.60;;
9809;SDS011;4944;52.514;13.192;2023-02-13T08:01:52;7.57;;;6.27;;
9809;SDS011;4944;52.514;13.192;2023-02-13T08:04:20;7.07;;;5.80;;
9809;SDS011;4944;52.514;13.192;2023-02-13T08:06:47;6.90;;;6.20;;
9809;SDS011;4944;52.514;13.192;2023-02-13T08:09:17;6.53;;;5.83;;
9809;SDS011;4944;52.514;13.192;2023-02-13T08:12:03;9.37;;;6.27;;
9809;SDS011;4944;52.514;13.192;2023-02-13T08:14:32;7.37;;;6.10;;
9809;SDS011;4944;52.514;13.192;2023-02-13T08:16:59;7.40;;;6.70;;
9809;SDS011;4944;52.514;13.192;2023-02-13T08:19:28;9.10;;;6.63;;
9809;SDS011;4944;52.514;13.192;2023-02-13T08:21:55;7.10;;;6.40;;
9809;SDS011;4944;52.514;13.192;2023-02-13T08:24:22;8.10;;;6.87;;
9809;SDS011;4944;52.514;13.192;2023-02-13T08:26:49;7.90;;;5.87;;
9809;SDS011;4944;52.514;13.192;2023-02-13T08:29:16;8.70;;;6.37;;
9809;SDS011;4944;52.514;13.192;2023-02-13T08:31:43;8.27;;;6.63;;
9809;SDS011;4944;52.514;13.192;2023-02-13T08:34:10;7.27;;;6.57;;
9809;SDS011;4944;52.514;13.192;2023-02-13T08:36:38;9.43;;;5.67;;
9809;SDS011;4944;52.514;13.192;2023-02-13T08:39:05;7.40;;;6.67;;
9809;SDS011;4944;52.514;13.192;2023-02-13T08:41:34;6.67;;;5.97;;
9809;SDS011;4944;52.514;13.192;2023-02-13T08:44:00;6.70;;;5.83;;
9809;SDS011;4944;52.514;13.192;2023-02-13T08:46:27;6.53;;;5.87;;
9809;SDS011;4944;52.514;13.192;2023-02-13T08:48:54;7.37;;;6.00;;
9809;SDS011;4944;52.514;13.192;2023-02-13T08:51:21;8.20;;;6.20;;
9809;SDS011;4944;52.514;13.192;2023-02-13T08:53:49;6.63;;;5.47;;
9809;SDS011;4944;52.514;13.192;2023-02-13T08:56:16;7.13;;;5.73;;
9809;SDS011;4944;52.514;13.192;2023-02-13T08:58:43;7.00;;;5.97;;
9809;SDS011;4944;52.514;13.192;2023-02-13T09:01:13;7.33;;;6.20;;
9809;SDS011;4944;52.514;13.192;2023-02-13T09:03:39;7.30;;;6.33;;
9809;SDS011;4944;52.514;13.192;2023-02-13T09:06:06;7.07;;;6.30;;
9809;SDS011;4944;52.514;13.192;2023-02-13T09:08:33;9.00;;;6.23;;
9809;SDS011;4944;52.514;13.192;2023-02-13T09:11:03;8.80;;;6.40;;
9809;SDS011;4944;52.514;13.192;2023-02-13T09:13:31;8.27;;;6.53;;
9809;SDS011;4944;52.514;13.192;2023-02-13T09:16:01;7.50;;;6.37;;
9809;SDS011;4944;52.514;13.192;2023-02-13T09:18:29;7.70;;;6.90;;
9809;SDS011;4944;52.514;13.192;2023-02-13T09:20:56;9.00;;;6.83;;
9809;SDS011;4944;52.514;13.192;2023-02-13T09:23:24;8.40;;;6.83;;
9809;SDS011;4944;52.514;13.192;2023-02-13T09:25:51;8.77;;;6.83;;
9809;SDS011;4944;52.514;13.192;2023-02-13T09:28:20;9.97;;;6.93;;
9809;SDS011;4944;52.514;13.192;2023-02-13T09:30:46;7.53;;;6.53;;
9809;SDS011;4944;52.514;13.192;2023-02-13T09:33:14;11.63;;;7.53;;
9809;SDS011;4944;52.514;13.192;2023-02-13T09:35:41;12.63;;;7.40;;
9809;SDS011;4944;52.514;13.192;2023-02-13T09:38:08;11.43;;;8.03;;
9809;SDS011;4944;52.514;13.192;2023-02-13T09:40:36;9.47;;;7.60;;
9809;SDS011;4944;52.514;13.192;2023-02-13T09:43:11;10.43;;;7.17;;
9809;SDS011;4944;52.514;13.192;2023-02-13T09:45:42;10.50;;;7.60;;
9809;SDS011;4944;52.514;13.192;2023-02-13T09:48:14;11.70;;;7.80;;
9809;SDS011;4944;52.514;13.192;2023-02-13T09:50:48;11.30;;;8.03;;
9809;SDS011;4944;52.514;13.192;2023-02-13T09:53:16;11.10;;;7.97;;
9809;SDS011;4944;52.514;13.192;2023-02-13T09:55:48;12.43;;;8.33;;
9809;SDS011;4944;52.514;13.192;2023-02-13T09:58:25;11.63;;;8.73;;
9809;SDS011;4944;52.514;13.192;2023-02-13T10:01:03;13.33;;;8.77;;
9809;SDS011;4944;52.514;13.192;2023-02-13T10:03:36;13.00;;;8.57;;
9809;SDS011;4944;52.514;13.192;2023-02-13T10:06:11;13.07;;;8.77;;
9809;SDS011;4944;52.514;13.192;2023-02-13T10:08:50;15.30;;;9.13;;
9809;SDS011;4944;52.514;13.192;2023-02-13T10:11:35;13.00;;;8.93;;
9809;SDS011;4944;52.514;13.192;2023-02-13T10:14:15;10.60;;;7.87;;
9809;SDS011;4944;52.514;13.192;2023-02-13T10:16:47;11.23;;;8.20;;
9809;SDS011;4944;52.514;13.192;2023-02-13T10:19:21;15.50;;;8.37;;
9809;SDS011;4944;52.514;13.192;2023-02-13T10:22:01;15.10;;;9.33;;
9809;SDS011;4944;52.514;13.192;2023-02-13T10:24:32;13.53;;;8.87;;
9809;SDS011;4944;52.514;13.192;2023-02-13T10:27:04;13.50;;;8.97;;
9809;SDS011;4944;52.514;13.192;2023-02-13T10:29:41;14.17;;;10.17;;
9809;SDS011;4944;52.514;13.192;2023-02-13T10:32:31;14.70;;;9.23;;
9809;SDS011;4944;52.514;13.192;2023-02-13T10:35:03;11.83;;;7.97;;
9809;SDS011;4944;52.514;13.192;2023-02-13T10:37:49;11.67;;;8.30;;
9809;SDS011;4944;52.514;13.192;2023-02-13T10:40:19;12.57;;;8.63;;
9809;SDS011;4944;52.514;13.192;2023-02-13T10:42:49;11.90;;;8.03;;
9809;SDS011;4944;52.514;13.192;2023-02-13T10:45:29;9.13;;;7.90;;
9809;SDS011;4944;52.514;13.192;2023-02-13T10:48:23;12.03;;;8.57;;
9809;SDS011;4944;52.514;13.192;2023-02-13T10:51:04;10.50;;;7.83;;
9809;SDS011;4944;52.514;13.192;2023-02-13T10:53:44;8.63;;;7.37;;
9809;SDS011;4944;52.514;13.192;2023-02-13T10:56:24;11.07;;;8.43;;
9809;SDS011;4944;52.514;13.192;2023-02-13T10:59:07;10.57;;;8.20;;
9809;SDS011;4944;52.514;13.192;2023-02-13T11:01:51;9.73;;;8.60;;
9809;SDS011;4944;52.514;13.192;2023-02-13T11:04:23;11.17;;;8.53;;
9809;SDS011;4944;52.514;13.192;2023-02-13T11:06:55;11.33;;;8.80;;
9809;SDS011;4944;52.514;13.192;2023-02-13T11:09:24;10.60;;;8.23;;
9809;SDS011;4944;52.514;13.192;2023-02-13T11:11:52;14.90;;;10.03;;
9809;SDS011;4944;52.514;13.192;2023-02-13T11:14:20;15.53;;;10.03;;
9809;SDS011;4944;52.514;13.192;2023-02-13T11:16:53;12.57;;;9.70;;
9809;SDS011;4944;52.514;13.192;2023-02-13T11:19:25;9.40;;;8.40;;
9809;SDS011;4944;52.514;13.192;2023-02-13T11:21:57;11.63;;;9.30;;
9809;SDS011;4944;52.514;13.192;2023-02-13T11:24:28;12.17;;;10.20;;
9809;SDS011;4944;52.514;13.192;2023-02-13T11:26:57;12.93;;;10.63;;
9809;SDS011;4944;52.514;13.192;2023-02-13T11:29:26;12.33;;;9.40;;
9809;SDS011;4944;52.514;13.192;2023-02-13T11:32:07;11.80;;;10.03;;
9809;SDS011;4944;52.514;13.192;2023-02-13T11:34:47;10.67;;;9.23;;
9809;SDS011;4944;52.514;13.192;2023-02-13T11:37:17;12.53;;;10.47;;
9809;SDS011;4944;52.514;13.192;2023-02-13T11:39:49;13.20;;;9.97;;
9809;SDS011;4944;52.514;13.192;2023-02-13T11:42:23;11.60;;;10.00;;
9809;SDS011;4944;52.514;13.192;2023-02-13T11:44:53;11.70;;;9.77;;
9809;SDS011;4944;52.514;13.192;2023-02-13T11:47:30;11.80;;;10.03;;
9809;SDS011;4944;52.514;13.192;2023-02-13T11:50:02;11.87;;;10.30;;
9809;SDS011;4944;52.514;13.192;2023-02-13T11:52:31;11.07;;;9.87;;
9809;SDS011;4944;52.514;13.192;2023-02-13T11:55:00;11.03;;;9.90;;
9809;SDS011;4944;52.514;13.192;2023-02-13T11:57:30;12.50;;;9.93;;
9809;SDS011;4944;52.514;13.192;2023-02-13T11:59:58;11.83;;;9.87;;
9809;SDS011;4944;52.514;13.192;2023-02-13T12:02:26;13.53;;;11.10;;
9809;SDS011;4944;52.514;13.192;2023-02-13T12:05:13;12.93;;;10.23;;
9809;SDS011;4944;52.514;13.192;2023-02-13T12:07:43;12.23;;;10.30;;
9809;SDS011;4944;52.514;13.192;2023-02-13T12:10:15;12.93;;;10.63;;
9809;SDS011;4944;52.514;13.192;2023-02-13T12:12:49;13.53;;;11.27;;
9809;SDS011;4944;52.514;13.192;2023-02-13T12:15:21;12.30;;;10.23;;
9809;SDS011;4944;52.514;13.192;2023-02-13T12:17:53;12.10;;;10.90;;
9809;SDS011;4944;52.514;13.192;2023-02-13T12:20:42;11.50;;;9.80;;
9809;SDS011;4944;52.514;13.192;2023-02-13T12:23:21;13.03;;;10.23;;
9809;SDS011;4944;52.514;13.192;2023-02-13T12:26:02;13.73;;;10.70;;
9809;SDS011;4944;52.514;13.192;2023-02-13T12:28:45;13.80;;;10.67;;
9809;SDS011;4944;52.514;13.192;2023-02-13T12:37:29;14.17;;;10.67;;
9809;SDS011;4944;52.514;13.192;2023-02-13T12:40:18;12.70;;;10.47;;
9809;SDS011;4944;52.514;13.192;2023-02-13T12:42:57;12.47;;;10.70;;
9809;SDS011;4944;52.514;13.192;2023-02-13T12:45:39;13.83;;;11.23;;
9809;SDS011;4944;52.514;13.192;2023-02-13T12:48:19;16.13;;;11.67;;
9809;SDS011;4944;52.514;13.192;2023-02-13T12:50:56;12.40;;;10.97;;
9809;SDS011;4944;52.514;13.192;2023-02-13T12:53:37;12.03;;;10.50;;
9809;SDS011;4944;52.514;13.192;2023-02-13T12:56:15;12.17;;;10.83;;
9809;SDS011;4944;52.514;13.192;2023-02-13T12:59:06;12.47;;;10.63;;
9809;SDS011;4944;52.514;13.192;2023-02-13T13:04:37;12.60;;;10.57;;
9809;SDS011;4944;52.514;13.192;2023-02-13T13:10:15;12.40;;;10.33;;
9809;SDS011;4944;52.514;13.192;2023-02-13T13:12:57;11.73;;;10.53;;
9809;SDS011;4944;52.514;13.192;2023-02-13T13:15:34;11.93;;;9.73;;
9809;SDS011;4944;52.514;13.192;2023-02-13T13:18:13;11.93;;;10.27;;
9809;SDS011;4944;52.514;13.192;2023-02-13T13:20:55;11.47;;;9.80;;
9809;SDS011;4944;52.514;13.192;2023-02-13T13:23:28;11.97;;;9.67;;
9809;SDS011;4944;52.514;13.192;2023-02-13T13:26:03;14.97;;;10.60;;
9809;SDS011;4944;52.514;13.192;2023-02-13T13:28:36;14.43;;;10.70;;
9809;SDS011;4944;52.514;13.192;2023-02-13T13:31:05;12.23;;;10.93;;
9809;SDS011;4944;52.514;13.192;2023-02-13T13:33:34;13.73;;;10.03;;
9809;SDS011;4944;52.514;13.192;2023-02-13T13:36:06;12.63;;;10.00;;
9809;SDS011;4944;52.514;13.192;2023-02-13T13:38:42;11.70;;;10.07;;
9809;SDS011;4944;52.514;13.192;2023-02-13T13:41:20;13.73;;;10.30;;
9809;SDS011;4944;52.514;13.192;2023-02-13T13:46:47;11.73;;;9.63;;
9809;SDS011;4944;52.514;13.192;2023-02-13T13:49:28;13.77;;;10.77;;
9809;SDS011;4944;52.514;13.192;2023-02-13T13:52:20;13.23;;;9.87;;
9809;SDS011;4944;52.514;13.192;2023-02-13T13:54:48;12.17;;;9.80;;
9809;SDS011;4944;52.514;13.192;2023-02-13T13:57:19;11.80;;;9.43;;
9809;SDS011;4944;52.514;13.192;2023-02-13T14:00:00;19.50;;;10.90;;
9809;SDS011;4944;52.514;13.192;2023-02-13T14:02:49;10.77;;;9.57;;
9809;SDS011;4944;52.514;13.192;2023-02-13T14:05:24;12.77;;;10.17;;
9809;SDS011;4944;52.514;13.192;2023-02-13T14:07:54;11.47;;;10.27;;
9809;SDS011;4944;52.514;13.192;2023-02-13T14:13:34;12.87;;;10.00;;
9809;SDS011;4944;52.514;13.192;2023-02-13T14:16:03;12.43;;;9.77;;
9809;SDS011;4944;52.514;13.192;2023-02-13T14:18:30;12.90;;;10.17;;
9809;SDS011;4944;52.514;13.192;2023-02-13T14:20:59;13.20;;;9.93;;
9809;SDS011;4944;52.514;13.192;2023-02-13T14:23:29;11.47;;;9.73;;
9809;SDS011;4944;52.514;13.192;2023-02-13T14:34:48;13.83;;;10.37;;
9809;SDS011;4944;52.514;13.192;2023-02-13T14:37:20;14.07;;;10.17;;
9809;SDS011;4944;52.514;13.192;2023-02-13T14:40:08;13.10;;;9.70;;
9809;SDS011;4944;52.514;13.192;2023-02-13T14:42:53;14.03;;;10.80;;
9809;SDS011;4944;52.514;13.192;2023-02-13T14:45:26;12.87;;;10.03;;
9809;SDS011;4944;52.514;13.192;2023-02-13T14:47:56;11.70;;;10.23;;
9809;SDS011;4944;52.514;13.192;2023-02-13T14:50:28;14.20;;;10.43;;
9809;SDS011;4944;52.514;13.192;2023-02-13T14:52:59;11.97;;;10.33;;
9809;SDS011;4944;52.514;13.192;2023-02-13T14:55:33;12.63;;;10.60;;
9809;SDS011;4944;52.514;13.192;2023-02-13T14:58:05;11.10;;;9.40;;
9809;SDS011;4944;52.514;13.192;2023-02-13T15:00:37;10.73;;;9.37;;
9809;SDS011;4944;52.514;13.192;2023-02-13T15:03:10;13.60;;;9.97;;
9809;SDS011;4944;52.514;13.192;2023-02-13T15:05:48;13.13;;;10.03;;
9809;SDS011;4944;52.514;13.192;2023-02-13T15:08:18;13.30;;;10.47;;
9809;SDS011;4944;52.514;13.192;2023-02-13T15:10:51;13.20;;;10.57;;
9809;SDS011;4944;52.514;13.192;2023-02-13T15:13:20;14.10;;;10.77;;
9809;SDS011;4944;52.514;13.192;2023-02-13T15:15:53;12.83;;;10.67;;
9809;SDS011;4944;52.514;13.192;2023-02-13T15:18:23;12.60;;;10.40;;
9809;SDS011;4944;52.514;13.192;2023-02-13T15:20:53;12.70;;;10.03;;
9809;SDS011;4944;52.514;13.192;2023-02-13T15:23:22;15.83;;;10.53;;
9809;SDS011;4944;52.514;13.192;2023-02-13T15:25:57;13.93;;;10.57;;
9809;SDS011;4944;52.514;13.192;2023-02-13T15:28:26;11.73;;;10.43;;
9809;SDS011;4944;52.514;13.192;2023-02-13T15:30:56;14.93;;;10.57;;
9809;SDS011;4944;52.514;13.192;2023-02-13T15:33:26;12.57;;;11.27;;
9809;SDS011;4944;52.514;13.192;2023-02-13T15:35:54;14.70;;;11.30;;
9809;SDS011;4944;52.514;13.192;2023-02-13T15:38:24;14.57;;;10.57;;
9809;SDS011;4944;52.514;13.192;2023-02-13T15:40:54;13.77;;;10.67;;
9809;SDS011;4944;52.514;13.192;2023-02-13T15:43:25;14.30;;;11.13;;
9809;SDS011;4944;52.514;13.192;2023-02-13T15:45:59;17.53;;;10.67;;
9809;SDS011;4944;52.514;13.192;2023-02-13T15:48:30;12.37;;;10.93;;
9809;SDS011;4944;52.514;13.192;2023-02-13T15:50:58;12.87;;;10.47;;